Terminal Aerodrome Forecast
Issued by NWS

Home | Current Version | Previous Version | Graphics & Text | Print | Product List | Glossary On
Versions: 1 2 3 4 5 6 7 8 9 10 11 12 13 14 15
000
FTUS45 KGGW 170520
TAFSDY
TAF
KSDY 170520Z 1706/1806 22005KT P6SM FEW250
     FM170800 23006KT P6SM SKC WS020/28035KT
     FM171400 23009KT P6SM SKC
     FM171900 23013KT P6SM SKC
     FM180200 21009KT P6SM FEW180 WS020/23040KT=

USA.gov is the U.S. government's official web portal to all federal, state and local government web resources and services.